Hauptseite
METAR-TAF:

METAR-TAF

Flughäfen :

Flugplatz Shoreham

Brighton, England

Breite: 50-50N, Länge: 000-17W, Höhe: 2 m

Beobachtung

Neuester Wetterbericht von vor 15 Stunden und 43 Minuten, um 15:20 UTC
Wind 19 kt aus West/Südwest
Temperatur 21°C
Luftfeuchtigkeit 64%
Luftdruck 1017 hPa
Sichtweite 10 km oder mehr
Leicht bewölkt in der Höhe von 1800 ft

METAR: EGKA 171520Z 24019KT 9999 FEW018 21/14 Q1017

Zeit: 08:03 (07:03 UTC)

Prognose

Neuester Wetterbericht von vor 17 Stunden und 4 Minuten, um 13:59 UTC
Gültige Prognose vom 17 um 15 UTC bis 17 um 19 UTC
Wind 14 kt aus Südwest
Sichtweite 10 km oder mehr
Leicht bewölkt in der Höhe von 2000 ft

TAF: EGKA 171359Z 1715/1719 23014KT 9999 FEW020

Wetterbeobachtungen und Prognosen von mehr als 4000 Flughäfen (METAR und TAF Bericht).

Die verfügbaren Stationen werden durch gelbe und rote Markierungen auf der Karte dargestellt.

Führen Sie die Maus auf sie, um den Namen der Station zu sehen.

Darauf klicken, um die Beobachtung von Wetterbeobachtungen und Prognosen zu sehen.

Um die Karte zu ändern : klicken Sie auf den grünen Tasten mit einem schwarzen Kreuz Zum Vergrößern, auf den grünen Button mit einem Gedankenstrich zu verkleinern, oder auf die grünen Pfeile für benachbarte Karten.


METAR-TAF: